sensor_id;sensor_type;location;lat;lon;timestamp;P1;durP1;ratioP1;P2;durP2;ratioP2
42832;SDS011;28479;51.478;5.692;2022-08-21T00:00:30;9.32;;;3.03;;
42832;SDS011;28479;51.478;5.692;2022-08-21T00:02:58;9.45;;;4.20;;
42832;SDS011;28479;51.478;5.692;2022-08-21T00:05:28;8.50;;;3.78;;
42832;SDS011;28479;51.478;5.692;2022-08-21T00:07:54;11.07;;;2.97;;
42832;SDS011;28479;51.478;5.692;2022-08-21T00:10:20;10.00;;;3.35;;
42832;SDS011;28479;51.478;5.692;2022-08-21T00:12:47;6.63;;;3.53;;
42832;SDS011;28479;51.478;5.692;2022-08-21T00:15:14;9.07;;;3.90;;
42832;SDS011;28479;51.478;5.692;2022-08-21T00:17:43;7.53;;;3.25;;
42832;SDS011;28479;51.478;5.692;2022-08-21T00:20:10;7.78;;;3.60;;
42832;SDS011;28479;51.478;5.692;2022-08-21T00:22:37;6.80;;;4.13;;
42832;SDS011;28479;51.478;5.692;2022-08-21T00:25:04;7.40;;;4.03;;
42832;SDS011;28479;51.478;5.692;2022-08-21T00:27:31;6.20;;;3.42;;
42832;SDS011;28479;51.478;5.692;2022-08-21T00:29:57;7.65;;;4.28;;
42832;SDS011;28479;51.478;5.692;2022-08-21T00:32:23;6.68;;;3.60;;
42832;SDS011;28479;51.478;5.692;2022-08-21T00:34:49;8.32;;;4.50;;
42832;SDS011;28479;51.478;5.692;2022-08-21T00:37:16;11.82;;;3.80;;
42832;SDS011;28479;51.478;5.692;2022-08-21T00:39:42;6.75;;;3.47;;
42832;SDS011;28479;51.478;5.692;2022-08-21T00:42:08;12.15;;;4.47;;
42832;SDS011;28479;51.478;5.692;2022-08-21T00:44:34;7.00;;;3.40;;
42832;SDS011;28479;51.478;5.692;2022-08-21T00:47:00;10.27;;;3.63;;
42832;SDS011;28479;51.478;5.692;2022-08-21T00:49:25;8.18;;;4.05;;
42832;SDS011;28479;51.478;5.692;2022-08-21T00:51:53;8.45;;;3.92;;
42832;SDS011;28479;51.478;5.692;2022-08-21T00:54:24;9.88;;;4.45;;
42832;SDS011;28479;51.478;5.692;2022-08-21T00:56:53;7.72;;;4.05;;
42832;SDS011;28479;51.478;5.692;2022-08-21T00:59:25;11.13;;;4.43;;
42832;SDS011;28479;51.478;5.692;2022-08-21T01:01:52;12.40;;;3.92;;
42832;SDS011;28479;51.478;5.692;2022-08-21T01:04:18;7.03;;;3.47;;
42832;SDS011;28479;51.478;5.692;2022-08-21T01:06:44;8.43;;;4.45;;
42832;SDS011;28479;51.478;5.692;2022-08-21T01:09:11;7.95;;;4.38;;
42832;SDS011;28479;51.478;5.692;2022-08-21T01:11:38;7.47;;;3.83;;
42832;SDS011;28479;51.478;5.692;2022-08-21T01:14:04;10.18;;;3.72;;
42832;SDS011;28479;51.478;5.692;2022-08-21T01:16:30;8.05;;;4.10;;
42832;SDS011;28479;51.478;5.692;2022-08-21T01:18:57;6.55;;;3.53;;
42832;SDS011;28479;51.478;5.692;2022-08-21T01:21:24;8.00;;;4.18;;
42832;SDS011;28479;51.478;5.692;2022-08-21T01:23:52;6.97;;;3.67;;
42832;SDS011;28479;51.478;5.692;2022-08-21T01:26:24;10.65;;;4.30;;
42832;SDS011;28479;51.478;5.692;2022-08-21T01:28:57;8.43;;;4.25;;
42832;SDS011;28479;51.478;5.692;2022-08-21T01:31:27;9.02;;;4.35;;
42832;SDS011;28479;51.478;5.692;2022-08-21T01:33:54;7.43;;;4.90;;
42832;SDS011;28479;51.478;5.692;2022-08-21T01:36:21;9.07;;;5.10;;
42832;SDS011;28479;51.478;5.692;2022-08-21T01:38:48;6.13;;;4.18;;
42832;SDS011;28479;51.478;5.692;2022-08-21T01:41:14;11.40;;;4.55;;
42832;SDS011;28479;51.478;5.692;2022-08-21T01:43:41;10.45;;;5.15;;
42832;SDS011;28479;51.478;5.692;2022-08-21T01:46:07;8.25;;;5.03;;
42832;SDS011;28479;51.478;5.692;2022-08-21T01:48:32;12.73;;;5.10;;
42832;SDS011;28479;51.478;5.692;2022-08-21T01:50:58;10.90;;;5.25;;
42832;SDS011;28479;51.478;5.692;2022-08-21T01:53:23;7.85;;;5.10;;
42832;SDS011;28479;51.478;5.692;2022-08-21T01:55:49;9.27;;;5.32;;
42832;SDS011;28479;51.478;5.692;2022-08-21T01:58:15;10.02;;;5.13;;
42832;SDS011;28479;51.478;5.692;2022-08-21T02:00:41;11.07;;;5.50;;
42832;SDS011;28479;51.478;5.692;2022-08-21T02:03:06;11.68;;;4.57;;
42832;SDS011;28479;51.478;5.692;2022-08-21T02:05:32;12.93;;;5.47;;
42832;SDS011;28479;51.478;5.692;2022-08-21T02:07:58;10.00;;;4.60;;
42832;SDS011;28479;51.478;5.692;2022-08-21T02:10:27;6.35;;;4.63;;
42832;SDS011;28479;51.478;5.692;2022-08-21T02:12:55;10.07;;;4.45;;
42832;SDS011;28479;51.478;5.692;2022-08-21T02:15:21;9.75;;;4.80;;
42832;SDS011;28479;51.478;5.692;2022-08-21T02:17:51;9.48;;;4.80;;
42832;SDS011;28479;51.478;5.692;2022-08-21T02:22:50;12.15;;;4.55;;
42832;SDS011;28479;51.478;5.692;2022-08-21T02:25:16;12.43;;;5.47;;
42832;SDS011;28479;51.478;5.692;2022-08-21T02:27:43;8.93;;;4.32;;
42832;SDS011;28479;51.478;5.692;2022-08-21T02:30:12;5.45;;;4.25;;
42832;SDS011;28479;51.478;5.692;2022-08-21T02:32:41;13.70;;;4.93;;
42832;SDS011;28479;51.478;5.692;2022-08-21T02:35:07;8.38;;;4.70;;
42832;SDS011;28479;51.478;5.692;2022-08-21T02:37:34;8.70;;;4.80;;
42832;SDS011;28479;51.478;5.692;2022-08-21T02:40:19;12.10;;;4.70;;
42832;SDS011;28479;51.478;5.692;2022-08-21T02:42:47;14.82;;;5.63;;
42832;SDS011;28479;51.478;5.692;2022-08-21T02:45:13;7.10;;;4.88;;
42832;SDS011;28479;51.478;5.692;2022-08-21T02:47:40;7.80;;;4.85;;
42832;SDS011;28479;51.478;5.692;2022-08-21T02:50:12;9.70;;;5.10;;
42832;SDS011;28479;51.478;5.692;2022-08-21T02:52:37;10.95;;;5.32;;
42832;SDS011;28479;51.478;5.692;2022-08-21T02:55:03;9.27;;;4.70;;
42832;SDS011;28479;51.478;5.692;2022-08-21T02:57:29;10.07;;;5.22;;
42832;SDS011;28479;51.478;5.692;2022-08-21T02:59:57;6.68;;;5.07;;
42832;SDS011;28479;51.478;5.692;2022-08-21T03:02:23;7.63;;;5.72;;
42832;SDS011;28479;51.478;5.692;2022-08-21T03:04:48;7.63;;;4.82;;
42832;SDS011;28479;51.478;5.692;2022-08-21T03:07:14;16.40;;;6.40;;
42832;SDS011;28479;51.478;5.692;2022-08-21T03:09:40;10.80;;;6.70;;
42832;SDS011;28479;51.478;5.692;2022-08-21T03:12:05;12.60;;;6.15;;
42832;SDS011;28479;51.478;5.692;2022-08-21T03:14:31;12.73;;;7.43;;
42832;SDS011;28479;51.478;5.692;2022-08-21T03:16:57;11.80;;;6.50;;
42832;SDS011;28479;51.478;5.692;2022-08-21T03:19:22;13.15;;;6.28;;
42832;SDS011;28479;51.478;5.692;2022-08-21T03:21:48;16.60;;;6.57;;
42832;SDS011;28479;51.478;5.692;2022-08-21T03:24:16;12.70;;;6.85;;
42832;SDS011;28479;51.478;5.692;2022-08-21T03:26:42;11.88;;;6.72;;
42832;SDS011;28479;51.478;5.692;2022-08-21T03:29:08;12.27;;;7.03;;
42832;SDS011;28479;51.478;5.692;2022-08-21T03:31:33;12.20;;;6.65;;
42832;SDS011;28479;51.478;5.692;2022-08-21T03:34:02;12.45;;;6.47;;
42832;SDS011;28479;51.478;5.692;2022-08-21T03:36:27;14.60;;;6.68;;
42832;SDS011;28479;51.478;5.692;2022-08-21T03:38:53;15.38;;;6.80;;
42832;SDS011;28479;51.478;5.692;2022-08-21T03:41:18;8.77;;;5.97;;
42832;SDS011;28479;51.478;5.692;2022-08-21T03:43:44;12.50;;;6.22;;
42832;SDS011;28479;51.478;5.692;2022-08-21T03:46:10;12.88;;;6.15;;
42832;SDS011;28479;51.478;5.692;2022-08-21T03:48:36;11.55;;;6.25;;
42832;SDS011;28479;51.478;5.692;2022-08-21T03:51:02;8.40;;;5.55;;
42832;SDS011;28479;51.478;5.692;2022-08-21T03:53:28;9.00;;;5.93;;
42832;SDS011;28479;51.478;5.692;2022-08-21T03:55:55;13.43;;;5.65;;
42832;SDS011;28479;51.478;5.692;2022-08-21T03:58:23;14.23;;;6.50;;
42832;SDS011;28479;51.478;5.692;2022-08-21T04:00:50;7.38;;;5.22;;
42832;SDS011;28479;51.478;5.692;2022-08-21T04:03:18;7.63;;;5.25;;
42832;SDS011;28479;51.478;5.692;2022-08-21T04:05:45;7.85;;;5.47;;
42832;SDS011;28479;51.478;5.692;2022-08-21T04:08:11;7.75;;;5.13;;
42832;SDS011;28479;51.478;5.692;2022-08-21T04:10:37;6.78;;;4.35;;
42832;SDS011;28479;51.478;5.692;2022-08-21T04:13:05;9.38;;;5.75;;
42832;SDS011;28479;51.478;5.692;2022-08-21T04:15:31;7.32;;;4.88;;
42832;SDS011;28479;51.478;5.692;2022-08-21T04:17:58;7.75;;;5.57;;
42832;SDS011;28479;51.478;5.692;2022-08-21T04:20:24;11.60;;;5.97;;
42832;SDS011;28479;51.478;5.692;2022-08-21T04:22:50;9.50;;;4.80;;
42832;SDS011;28479;51.478;5.692;2022-08-21T04:25:16;7.13;;;4.55;;
42832;SDS011;28479;51.478;5.692;2022-08-21T04:27:43;11.32;;;5.22;;
42832;SDS011;28479;51.478;5.692;2022-08-21T04:30:10;6.75;;;4.85;;
42832;SDS011;28479;51.478;5.692;2022-08-21T04:32:37;13.20;;;5.43;;
42832;SDS011;28479;51.478;5.692;2022-08-21T04:35:08;11.93;;;5.53;;
42832;SDS011;28479;51.478;5.692;2022-08-21T04:37:35;8.95;;;5.50;;
42832;SDS011;28479;51.478;5.692;2022-08-21T04:40:00;7.80;;;5.20;;
42832;SDS011;28479;51.478;5.692;2022-08-21T04:42:28;9.70;;;5.43;;
42832;SDS011;28479;51.478;5.692;2022-08-21T04:44:53;11.20;;;5.40;;
42832;SDS011;28479;51.478;5.692;2022-08-21T04:47:20;9.30;;;4.90;;
42832;SDS011;28479;51.478;5.692;2022-08-21T04:49:46;7.32;;;5.55;;
42832;SDS011;28479;51.478;5.692;2022-08-21T04:52:13;22.58;;;5.97;;
42832;SDS011;28479;51.478;5.692;2022-08-21T04:54:42;13.60;;;5.88;;
42832;SDS011;28479;51.478;5.692;2022-08-21T04:57:10;7.82;;;5.18;;
42832;SDS011;28479;51.478;5.692;2022-08-21T04:59:45;8.43;;;4.50;;
42832;SDS011;28479;51.478;5.692;2022-08-21T05:02:13;11.27;;;5.85;;
42832;SDS011;28479;51.478;5.692;2022-08-21T05:04:42;10.77;;;5.90;;
42832;SDS011;28479;51.478;5.692;2022-08-21T05:07:12;9.55;;;5.55;;
42832;SDS011;28479;51.478;5.692;2022-08-21T05:09:42;8.98;;;5.78;;
42832;SDS011;28479;51.478;5.692;2022-08-21T05:12:08;9.20;;;5.07;;
42832;SDS011;28479;51.478;5.692;2022-08-21T05:14:35;12.75;;;5.20;;
42832;SDS011;28479;51.478;5.692;2022-08-21T05:17:01;9.50;;;4.57;;
42832;SDS011;28479;51.478;5.692;2022-08-21T05:19:26;7.43;;;4.93;;
42832;SDS011;28479;51.478;5.692;2022-08-21T05:21:52;10.57;;;5.15;;
42832;SDS011;28479;51.478;5.692;2022-08-21T05:24:18;14.32;;;4.95;;
42832;SDS011;28479;51.478;5.692;2022-08-21T05:26:44;7.15;;;4.40;;
42832;SDS011;28479;51.478;5.692;2022-08-21T05:29:11;9.27;;;5.57;;
42832;SDS011;28479;51.478;5.692;2022-08-21T05:31:37;12.82;;;5.07;;
42832;SDS011;28479;51.478;5.692;2022-08-21T05:34:03;9.77;;;4.90;;
42832;SDS011;28479;51.478;5.692;2022-08-21T05:36:29;10.75;;;4.97;;
42832;SDS011;28479;51.478;5.692;2022-08-21T05:38:55;9.55;;;5.07;;
42832;SDS011;28479;51.478;5.692;2022-08-21T05:41:21;10.82;;;4.90;;
42832;SDS011;28479;51.478;5.692;2022-08-21T05:43:47;10.95;;;4.22;;
42832;SDS011;28479;51.478;5.692;2022-08-21T05:46:16;6.32;;;3.78;;
42832;SDS011;28479;51.478;5.692;2022-08-21T05:48:42;8.48;;;5.20;;
42832;SDS011;28479;51.478;5.692;2022-08-21T05:51:09;7.80;;;4.70;;
42832;SDS011;28479;51.478;5.692;2022-08-21T05:53:37;10.35;;;4.55;;
42832;SDS011;28479;51.478;5.692;2022-08-21T05:56:04;17.10;;;5.05;;
42832;SDS011;28479;51.478;5.692;2022-08-21T05:58:30;16.05;;;4.65;;
42832;SDS011;28479;51.478;5.692;2022-08-21T06:00:57;10.52;;;4.63;;
42832;SDS011;28479;51.478;5.692;2022-08-21T06:03:25;8.52;;;3.75;;
42832;SDS011;28479;51.478;5.692;2022-08-21T06:05:52;7.88;;;4.45;;
42832;SDS011;28479;51.478;5.692;2022-08-21T06:08:19;9.50;;;4.32;;
42832;SDS011;28479;51.478;5.692;2022-08-21T06:10:46;7.07;;;3.72;;
42832;SDS011;28479;51.478;5.692;2022-08-21T06:13:13;5.35;;;3.83;;
42832;SDS011;28479;51.478;5.692;2022-08-21T06:15:39;8.75;;;4.18;;
42832;SDS011;28479;51.478;5.692;2022-08-21T06:18:05;6.22;;;3.63;;
42832;SDS011;28479;51.478;5.692;2022-08-21T06:20:31;11.25;;;4.28;;
42832;SDS011;28479;51.478;5.692;2022-08-21T06:22:57;8.50;;;3.50;;
42832;SDS011;28479;51.478;5.692;2022-08-21T06:25:24;8.05;;;3.58;;
42832;SDS011;28479;51.478;5.692;2022-08-21T06:27:50;10.27;;;4.00;;
42832;SDS011;28479;51.478;5.692;2022-08-21T06:30:16;11.68;;;3.15;;
42832;SDS011;28479;51.478;5.692;2022-08-21T06:32:42;10.82;;;4.00;;
42832;SDS011;28479;51.478;5.692;2022-08-21T06:35:08;5.85;;;3.53;;
42832;SDS011;28479;51.478;5.692;2022-08-21T06:37:33;7.50;;;3.60;;
42832;SDS011;28479;51.478;5.692;2022-08-21T06:40:03;8.18;;;3.42;;
42832;SDS011;28479;51.478;5.692;2022-08-21T06:42:30;10.13;;;4.23;;
42832;SDS011;28479;51.478;5.692;2022-08-21T06:44:56;11.32;;;3.80;;
42832;SDS011;28479;51.478;5.692;2022-08-21T06:47:22;10.25;;;3.60;;
42832;SDS011;28479;51.478;5.692;2022-08-21T06:49:48;10.90;;;3.42;;
42832;SDS011;28479;51.478;5.692;2022-08-21T06:52:13;9.07;;;3.13;;
42832;SDS011;28479;51.478;5.692;2022-08-21T06:54:39;11.00;;;3.63;;
42832;SDS011;28479;51.478;5.692;2022-08-21T06:57:05;3.95;;;2.53;;
42832;SDS011;28479;51.478;5.692;2022-08-21T06:59:31;6.28;;;3.22;;
42832;SDS011;28479;51.478;5.692;2022-08-21T07:01:58;6.65;;;2.88;;
42832;SDS011;28479;51.478;5.692;2022-08-21T07:04:24;12.98;;;3.50;;
42832;SDS011;28479;51.478;5.692;2022-08-21T07:06:50;10.43;;;3.97;;
42832;SDS011;28479;51.478;5.692;2022-08-21T07:09:16;11.55;;;2.78;;
42832;SDS011;28479;51.478;5.692;2022-08-21T07:11:50;6.95;;;2.85;;
42832;SDS011;28479;51.478;5.692;2022-08-21T07:14:18;7.20;;;2.88;;
42832;SDS011;28479;51.478;5.692;2022-08-21T07:16:44;8.18;;;3.63;;
42832;SDS011;28479;51.478;5.692;2022-08-21T07:19:10;8.18;;;2.58;;
42832;SDS011;28479;51.478;5.692;2022-08-21T07:21:35;7.10;;;2.70;;
42832;SDS011;28479;51.478;5.692;2022-08-21T07:24:01;7.00;;;2.58;;
42832;SDS011;28479;51.478;5.692;2022-08-21T07:26:27;9.27;;;2.85;;
42832;SDS011;28479;51.478;5.692;2022-08-21T07:28:53;14.18;;;2.78;;
42832;SDS011;28479;51.478;5.692;2022-08-21T07:31:19;10.63;;;2.97;;
42832;SDS011;28479;51.478;5.692;2022-08-21T07:33:47;11.18;;;2.70;;
42832;SDS011;28479;51.478;5.692;2022-08-21T07:36:13;8.27;;;2.58;;
42832;SDS011;28479;51.478;5.692;2022-08-21T07:38:38;9.23;;;2.60;;
42832;SDS011;28479;51.478;5.692;2022-08-21T07:41:11;6.53;;;2.70;;
42832;SDS011;28479;51.478;5.692;2022-08-21T07:43:40;11.70;;;3.03;;
42832;SDS011;28479;51.478;5.692;2022-08-21T07:46:06;6.13;;;2.13;;
42832;SDS011;28479;51.478;5.692;2022-08-21T07:48:31;8.00;;;2.75;;
42832;SDS011;28479;51.478;5.692;2022-08-21T07:50:57;14.80;;;3.45;;
42832;SDS011;28479;51.478;5.692;2022-08-21T07:53:23;8.57;;;2.20;;
42832;SDS011;28479;51.478;5.692;2022-08-21T07:55:49;10.25;;;1.98;;
42832;SDS011;28479;51.478;5.692;2022-08-21T07:58:15;9.38;;;2.72;;
42832;SDS011;28479;51.478;5.692;2022-08-21T08:00:40;11.70;;;2.22;;
42832;SDS011;28479;51.478;5.692;2022-08-21T08:03:06;8.23;;;2.17;;
42832;SDS011;28479;51.478;5.692;2022-08-21T08:05:32;8.07;;;3.17;;
42832;SDS011;28479;51.478;5.692;2022-08-21T08:07:57;5.22;;;2.15;;
42832;SDS011;28479;51.478;5.692;2022-08-21T08:10:24;13.35;;;2.03;;
42832;SDS011;28479;51.478;5.692;2022-08-21T08:12:51;6.32;;;1.70;;
42832;SDS011;28479;51.478;5.692;2022-08-21T08:15:19;13.18;;;2.00;;
42832;SDS011;28479;51.478;5.692;2022-08-21T08:17:48;11.85;;;2.88;;
42832;SDS011;28479;51.478;5.692;2022-08-21T08:20:14;10.48;;;2.42;;
42832;SDS011;28479;51.478;5.692;2022-08-21T08:22:41;10.45;;;2.13;;
42832;SDS011;28479;51.478;5.692;2022-08-21T08:25:08;7.43;;;2.08;;
42832;SDS011;28479;51.478;5.692;2022-08-21T08:27:35;8.95;;;2.53;;
42832;SDS011;28479;51.478;5.692;2022-08-21T08:30:01;6.78;;;1.75;;
42832;SDS011;28479;51.478;5.692;2022-08-21T08:32:27;11.68;;;2.03;;
42832;SDS011;28479;51.478;5.692;2022-08-21T08:34:53;5.63;;;2.10;;
42832;SDS011;28479;51.478;5.692;2022-08-21T08:37:19;5.97;;;1.95;;
42832;SDS011;28479;51.478;5.692;2022-08-21T08:39:45;5.10;;;2.15;;
42832;SDS011;28479;51.478;5.692;2022-08-21T08:42:12;11.63;;;1.77;;
42832;SDS011;28479;51.478;5.692;2022-08-21T08:44:42;8.23;;;1.63;;
42832;SDS011;28479;51.478;5.692;2022-08-21T08:47:10;8.63;;;1.55;;
42832;SDS011;28479;51.478;5.692;2022-08-21T08:49:42;6.25;;;1.88;;
42832;SDS011;28479;51.478;5.692;2022-08-21T08:52:35;8.17;;;1.83;;
42832;SDS011;28479;51.478;5.692;2022-08-21T08:55:14;7.82;;;1.63;;
42832;SDS011;28479;51.478;5.692;2022-08-21T08:57:47;6.03;;;1.58;;
42832;SDS011;28479;51.478;5.692;2022-08-21T09:00:15;9.07;;;1.45;;
42832;SDS011;28479;51.478;5.692;2022-08-21T09:02:43;14.13;;;1.90;;
42832;SDS011;28479;51.478;5.692;2022-08-21T09:05:15;6.50;;;1.50;;
42832;SDS011;28479;51.478;5.692;2022-08-21T09:10:29;11.73;;;1.80;;
42832;SDS011;28479;51.478;5.692;2022-08-21T09:13:24;8.68;;;1.35;;
42832;SDS011;28479;51.478;5.692;2022-08-21T09:16:03;8.70;;;1.83;;
42832;SDS011;28479;51.478;5.692;2022-08-21T09:18:54;8.02;;;2.15;;
42832;SDS011;28479;51.478;5.692;2022-08-21T09:21:31;3.50;;;1.63;;
42832;SDS011;28479;51.478;5.692;2022-08-21T09:24:02;8.18;;;2.33;;
42832;SDS011;28479;51.478;5.692;2022-08-21T09:26:47;6.97;;;1.00;;
42832;SDS011;28479;51.478;5.692;2022-08-21T09:29:19;3.85;;;1.13;;
42832;SDS011;28479;51.478;5.692;2022-08-21T09:31:48;6.63;;;1.25;;
42832;SDS011;28479;51.478;5.692;2022-08-21T09:34:23;8.65;;;1.80;;
42832;SDS011;28479;51.478;5.692;2022-08-21T09:36:50;9.75;;;1.83;;
42832;SDS011;28479;51.478;5.692;2022-08-21T09:39:24;7.50;;;1.20;;
42832;SDS011;28479;51.478;5.692;2022-08-21T09:41:56;5.78;;;1.30;;
42832;SDS011;28479;51.478;5.692;2022-08-21T09:44:25;6.07;;;1.50;;
42832;SDS011;28479;51.478;5.692;2022-08-21T09:46:56;8.43;;;1.30;;
42832;SDS011;28479;51.478;5.692;2022-08-21T09:49:29;4.68;;;1.10;;
42832;SDS011;28479;51.478;5.692;2022-08-21T09:51:57;5.45;;;1.52;;
42832;SDS011;28479;51.478;5.692;2022-08-21T09:54:31;3.72;;;1.30;;
42832;SDS011;28479;51.478;5.692;2022-08-21T09:57:03;5.80;;;1.20;;
42832;SDS011;28479;51.478;5.692;2022-08-21T09:59:52;5.05;;;0.98;;
42832;SDS011;28479;51.478;5.692;2022-08-21T10:04:54;26.42;;;13.30;;
42832;SDS011;28479;51.478;5.692;2022-08-21T10:07:23;18.70;;;7.78;;
42832;SDS011;28479;51.478;5.692;2022-08-21T10:09:58;10.95;;;4.82;;
42832;SDS011;28479;51.478;5.692;2022-08-21T10:15:41;11.35;;;2.28;;
42832;SDS011;28479;51.478;5.692;2022-08-21T10:18:27;3.22;;;1.30;;
42832;SDS011;28479;51.478;5.692;2022-08-21T10:21:15;4.13;;;1.40;;
42832;SDS011;28479;51.478;5.692;2022-08-21T10:24:02;4.43;;;1.25;;
42832;SDS011;28479;51.478;5.692;2022-08-21T10:29:38;4.13;;;1.33;;
42832;SDS011;28479;51.478;5.692;2022-08-21T10:32:17;7.60;;;1.35;;
42832;SDS011;28479;51.478;5.692;2022-08-21T10:37:44;2.90;;;1.27;;
42832;SDS011;28479;51.478;5.692;2022-08-21T10:49:09;4.45;;;2.08;;
42832;SDS011;28479;51.478;5.692;2022-08-21T10:51:56;6.70;;;1.55;;
42832;SDS011;28479;51.478;5.692;2022-08-21T10:55:02;3.50;;;1.30;;
42832;SDS011;28479;51.478;5.692;2022-08-21T10:57:51;3.58;;;1.10;;
42832;SDS011;28479;51.478;5.692;2022-08-21T11:00:23;7.18;;;1.48;;
42832;SDS011;28479;51.478;5.692;2022-08-21T11:03:05;1.90;;;1.13;;
42832;SDS011;28479;51.478;5.692;2022-08-21T11:05:59;3.05;;;1.08;;
42832;SDS011;28479;51.478;5.692;2022-08-21T11:08:35;2.72;;;0.90;;
42832;SDS011;28479;51.478;5.692;2022-08-21T11:13:55;2.92;;;1.10;;
42832;SDS011;28479;51.478;5.692;2022-08-21T11:16:36;3.80;;;1.30;;
42832;SDS011;28479;51.478;5.692;2022-08-21T11:19:13;5.30;;;1.05;;
42832;SDS011;28479;51.478;5.692;2022-08-21T11:24:43;3.43;;;1.23;;
42832;SDS011;28479;51.478;5.692;2022-08-21T11:27:18;2.45;;;0.95;;
42832;SDS011;28479;51.478;5.692;2022-08-21T11:29:56;2.83;;;1.30;;
42832;SDS011;28479;51.478;5.692;2022-08-21T11:32:39;2.08;;;0.80;;
42832;SDS011;28479;51.478;5.692;2022-08-21T11:43:46;2.80;;;1.63;;
42832;SDS011;28479;51.478;5.692;2022-08-21T11:46:17;4.20;;;1.40;;
42832;SDS011;28479;51.478;5.692;2022-08-21T11:52:07;4.80;;;1.30;;
42832;SDS011;28479;51.478;5.692;2022-08-21T11:54:33;7.88;;;1.20;;
42832;SDS011;28479;51.478;5.692;2022-08-21T11:57:13;2.85;;;1.17;;
42832;SDS011;28479;51.478;5.692;2022-08-21T12:02:24;6.80;;;2.05;;
42832;SDS011;28479;51.478;5.692;2022-08-21T12:04:56;1.92;;;1.30;;
42832;SDS011;28479;51.478;5.692;2022-08-21T12:07:36;3.10;;;1.15;;
42832;SDS011;28479;51.478;5.692;2022-08-21T12:10:09;5.53;;;1.38;;
42832;SDS011;28479;51.478;5.692;2022-08-21T12:12:39;8.40;;;1.35;;
42832;SDS011;28479;51.478;5.692;2022-08-21T12:20:44;2.10;;;1.42;;
42832;SDS011;28479;51.478;5.692;2022-08-21T12:26:51;3.10;;;1.48;;
42832;SDS011;28479;51.478;5.692;2022-08-21T12:29:36;4.60;;;1.40;;
42832;SDS011;28479;51.478;5.692;2022-08-21T12:34:40;3.90;;;1.38;;
42832;SDS011;28479;51.478;5.692;2022-08-21T12:43:05;4.13;;;1.27;;
42832;SDS011;28479;51.478;5.692;2022-08-21T12:45:45;1.45;;;1.23;;
42832;SDS011;28479;51.478;5.692;2022-08-21T12:51:32;5.05;;;1.45;;
42832;SDS011;28479;51.478;5.692;2022-08-21T12:54:08;5.80;;;1.52;;
42832;SDS011;28479;51.478;5.692;2022-08-21T12:56:34;2.97;;;1.55;;
42832;SDS011;28479;51.478;5.692;2022-08-21T12:59:07;4.63;;;1.70;;
42832;SDS011;28479;51.478;5.692;2022-08-21T13:01:46;4.20;;;1.70;;
42832;SDS011;28479;51.478;5.692;2022-08-21T13:07:21;7.28;;;1.48;;
42832;SDS011;28479;51.478;5.692;2022-08-21T13:09:54;3.30;;;1.10;;
42832;SDS011;28479;51.478;5.692;2022-08-21T13:12:23;4.05;;;1.80;;
42832;SDS011;28479;51.478;5.692;2022-08-21T13:14:50;5.97;;;2.20;;
42832;SDS011;28479;51.478;5.692;2022-08-21T13:17:18;3.65;;;1.48;;
42832;SDS011;28479;51.478;5.692;2022-08-21T13:22:25;3.10;;;1.48;;
42832;SDS011;28479;51.478;5.692;2022-08-21T13:24:51;2.55;;;1.20;;
42832;SDS011;28479;51.478;5.692;2022-08-21T13:27:22;5.75;;;1.17;;
42832;SDS011;28479;51.478;5.692;2022-08-21T13:30:09;5.75;;;1.40;;
42832;SDS011;28479;51.478;5.692;2022-08-21T13:32:43;4.28;;;1.42;;
42832;SDS011;28479;51.478;5.692;2022-08-21T13:35:18;8.77;;;1.65;;
42832;SDS011;28479;51.478;5.692;2022-08-21T13:37:46;8.40;;;1.55;;
42832;SDS011;28479;51.478;5.692;2022-08-21T13:40:14;5.43;;;1.52;;
42832;SDS011;28479;51.478;5.692;2022-08-21T13:42:43;6.90;;;1.50;;
42832;SDS011;28479;51.478;5.692;2022-08-21T13:45:31;8.07;;;2.15;;
42832;SDS011;28479;51.478;5.692;2022-08-21T13:47:57;2.30;;;1.15;;
42832;SDS011;28479;51.478;5.692;2022-08-21T13:50:25;7.57;;;1.40;;
42832;SDS011;28479;51.478;5.692;2022-08-21T13:52:59;3.13;;;1.50;;
42832;SDS011;28479;51.478;5.692;2022-08-21T13:56:02;8.38;;;1.38;;
42832;SDS011;28479;51.478;5.692;2022-08-21T14:00:55;5.15;;;1.67;;
42832;SDS011;28479;51.478;5.692;2022-08-21T14:03:33;3.58;;;1.50;;
42832;SDS011;28479;51.478;5.692;2022-08-21T14:06:12;6.28;;;1.75;;
42832;SDS011;28479;51.478;5.692;2022-08-21T14:08:42;5.22;;;1.92;;
42832;SDS011;28479;51.478;5.692;2022-08-21T14:11:15;7.88;;;1.42;;
42832;SDS011;28479;51.478;5.692;2022-08-21T14:21:34;5.90;;;1.50;;
42832;SDS011;28479;51.478;5.692;2022-08-21T14:26:33;4.35;;;1.55;;
42832;SDS011;28479;51.478;5.692;2022-08-21T14:29:01;6.53;;;1.58;;
42832;SDS011;28479;51.478;5.692;2022-08-21T14:31:32;4.05;;;1.88;;
42832;SDS011;28479;51.478;5.692;2022-08-21T14:33:59;7.82;;;2.17;;
42832;SDS011;28479;51.478;5.692;2022-08-21T14:36:28;7.10;;;1.77;;
42832;SDS011;28479;51.478;5.692;2022-08-21T14:38:54;9.15;;;1.83;;
42832;SDS011;28479;51.478;5.692;2022-08-21T14:41:21;6.40;;;1.60;;
42832;SDS011;28479;51.478;5.692;2022-08-21T14:43:51;7.32;;;1.67;;
42832;SDS011;28479;51.478;5.692;2022-08-21T14:46:21;1.95;;;1.25;;
42832;SDS011;28479;51.478;5.692;2022-08-21T14:51:16;4.38;;;2.33;;
42832;SDS011;28479;51.478;5.692;2022-08-21T14:53:41;4.32;;;2.08;;
42832;SDS011;28479;51.478;5.692;2022-08-21T14:56:07;3.70;;;1.67;;
42832;SDS011;28479;51.478;5.692;2022-08-21T14:58:36;8.27;;;1.67;;
42832;SDS011;28479;51.478;5.692;2022-08-21T15:01:04;5.60;;;1.40;;
42832;SDS011;28479;51.478;5.692;2022-08-21T15:03:34;2.80;;;1.23;;
42832;SDS011;28479;51.478;5.692;2022-08-21T15:06:01;6.03;;;2.45;;
42832;SDS011;28479;51.478;5.692;2022-08-21T15:08:28;8.90;;;1.30;;
42832;SDS011;28479;51.478;5.692;2022-08-21T15:10:54;5.70;;;1.85;;
42832;SDS011;28479;51.478;5.692;2022-08-21T15:13:20;3.88;;;1.50;;
42832;SDS011;28479;51.478;5.692;2022-08-21T15:15:47;6.30;;;2.15;;
42832;SDS011;28479;51.478;5.692;2022-08-21T15:18:17;3.05;;;1.50;;
42832;SDS011;28479;51.478;5.692;2022-08-21T15:20:46;5.10;;;1.65;;
42832;SDS011;28479;51.478;5.692;2022-08-21T15:23:12;5.93;;;1.30;;
42832;SDS011;28479;51.478;5.692;2022-08-21T15:25:39;3.97;;;1.77;;
42832;SDS011;28479;51.478;5.692;2022-08-21T15:28:07;4.00;;;1.55;;
42832;SDS011;28479;51.478;5.692;2022-08-21T15:30:33;8.00;;;2.75;;
42832;SDS011;28479;51.478;5.692;2022-08-21T15:32:59;4.18;;;2.38;;
42832;SDS011;28479;51.478;5.692;2022-08-21T15:35:24;5.95;;;1.83;;
42832;SDS011;28479;51.478;5.692;2022-08-21T15:37:50;8.77;;;2.13;;
42832;SDS011;28479;51.478;5.692;2022-08-21T15:40:16;4.22;;;1.75;;
42832;SDS011;28479;51.478;5.692;2022-08-21T15:42:42;13.20;;;2.35;;
42832;SDS011;28479;51.478;5.692;2022-08-21T15:45:08;6.57;;;2.88;;
42832;SDS011;28479;51.478;5.692;2022-08-21T15:47:36;7.20;;;2.00;;
42832;SDS011;28479;51.478;5.692;2022-08-21T15:50:04;5.38;;;1.73;;
42832;SDS011;28479;51.478;5.692;2022-08-21T15:52:32;9.45;;;2.08;;
42832;SDS011;28479;51.478;5.692;2022-08-21T15:54:58;7.63;;;1.98;;
42832;SDS011;28479;51.478;5.692;2022-08-21T15:57:28;8.30;;;2.03;;
42832;SDS011;28479;51.478;5.692;2022-08-21T15:59:54;6.80;;;1.85;;
42832;SDS011;28479;51.478;5.692;2022-08-21T16:02:26;11.55;;;1.55;;
42832;SDS011;28479;51.478;5.692;2022-08-21T16:04:54;2.92;;;1.33;;
42832;SDS011;28479;51.478;5.692;2022-08-21T16:07:22;4.80;;;1.85;;
42832;SDS011;28479;51.478;5.692;2022-08-21T16:09:47;5.22;;;1.38;;
42832;SDS011;28479;51.478;5.692;2022-08-21T16:12:25;10.80;;;1.40;;
42832;SDS011;28479;51.478;5.692;2022-08-21T16:14:57;8.07;;;1.73;;
42832;SDS011;28479;51.478;5.692;2022-08-21T16:17:26;6.93;;;2.00;;
42832;SDS011;28479;51.478;5.692;2022-08-21T16:19:54;9.45;;;2.75;;
42832;SDS011;28479;51.478;5.692;2022-08-21T16:22:20;5.15;;;1.65;;